sensor_id;sensor_type;location;lat;lon;timestamp;temperature;humidity
18450;DHT22;9354;50.194;7.690;2023-06-01T00:01:18;16.90;99.90
18450;DHT22;9354;50.194;7.690;2023-06-01T00:03:47;16.90;99.90
18450;DHT22;9354;50.194;7.690;2023-06-01T00:06:16;16.90;99.90
18450;DHT22;9354;50.194;7.690;2023-06-01T00:08:43;16.90;99.90
18450;DHT22;9354;50.194;7.690;2023-06-01T00:11:10;16.90;99.90
18450;DHT22;9354;50.194;7.690;2023-06-01T00:13:38;16.80;99.90
18450;DHT22;9354;50.194;7.690;2023-06-01T00:16:05;16.70;99.90
18450;DHT22;9354;50.194;7.690;2023-06-01T00:18:33;16.70;99.90
18450;DHT22;9354;50.194;7.690;2023-06-01T00:21:00;16.60;99.90
18450;DHT22;9354;50.194;7.690;2023-06-01T00:23:30;16.60;99.90
18450;DHT22;9354;50.194;7.690;2023-06-01T00:25:58;16.50;99.90
18450;DHT22;9354;50.194;7.690;2023-06-01T00:28:25;16.50;99.90
18450;DHT22;9354;50.194;7.690;2023-06-01T00:30:53;16.40;99.90
18450;DHT22;9354;50.194;7.690;2023-06-01T00:33:20;16.30;99.90
18450;DHT22;9354;50.194;7.690;2023-06-01T00:35:48;16.20;99.90
18450;DHT22;9354;50.194;7.690;2023-06-01T00:38:15;16.10;99.90
18450;DHT22;9354;50.194;7.690;2023-06-01T00:40:44;16.10;99.90
18450;DHT22;9354;50.194;7.690;2023-06-01T00:43:16;16.00;99.90
18450;DHT22;9354;50.194;7.690;2023-06-01T00:45:43;15.90;99.90
18450;DHT22;9354;50.194;7.690;2023-06-01T00:48:11;16.00;99.90
18450;DHT22;9354;50.194;7.690;2023-06-01T00:50:39;16.00;99.90
18450;DHT22;9354;50.194;7.690;2023-06-01T00:53:09;15.90;99.90
18450;DHT22;9354;50.194;7.690;2023-06-01T00:55:39;15.90;99.90
18450;DHT22;9354;50.194;7.690;2023-06-01T00:58:08;15.90;99.90
18450;DHT22;9354;50.194;7.690;2023-06-01T01:00:35;15.80;99.90
18450;DHT22;9354;50.194;7.690;2023-06-01T01:03:04;15.80;99.90
18450;DHT22;9354;50.194;7.690;2023-06-01T01:05:36;15.80;99.90
18450;DHT22;9354;50.194;7.690;2023-06-01T01:08:09;15.70;99.90
18450;DHT22;9354;50.194;7.690;2023-06-01T01:10:45;15.70;99.90
18450;DHT22;9354;50.194;7.690;2023-06-01T01:13:22;15.60;99.90
18450;DHT22;9354;50.194;7.690;2023-06-01T01:15:56;15.60;99.90
18450;DHT22;9354;50.194;7.690;2023-06-01T01:18:30;15.60;99.90
18450;DHT22;9354;50.194;7.690;2023-06-01T01:21:02;15.60;99.90
18450;DHT22;9354;50.194;7.690;2023-06-01T01:24:01;15.60;99.90
18450;DHT22;9354;50.194;7.690;2023-06-01T01:26:46;15.60;99.90
18450;DHT22;9354;50.194;7.690;2023-06-01T01:29:20;15.60;99.90
18450;DHT22;9354;50.194;7.690;2023-06-01T01:31:49;15.60;99.90
18450;DHT22;9354;50.194;7.690;2023-06-01T01:34:18;15.70;99.90
18450;DHT22;9354;50.194;7.690;2023-06-01T01:36:46;15.70;99.90
18450;DHT22;9354;50.194;7.690;2023-06-01T01:39:14;15.70;99.90
18450;DHT22;9354;50.194;7.690;2023-06-01T01:41:41;15.70;99.90
18450;DHT22;9354;50.194;7.690;2023-06-01T01:44:08;15.70;99.90
18450;DHT22;9354;50.194;7.690;2023-06-01T01:46:44;15.70;99.90
18450;DHT22;9354;50.194;7.690;2023-06-01T01:49:18;15.60;99.90
18450;DHT22;9354;50.194;7.690;2023-06-01T01:51:52;15.60;99.90
18450;DHT22;9354;50.194;7.690;2023-06-01T01:54:21;15.50;99.90
18450;DHT22;9354;50.194;7.690;2023-06-01T01:56:53;15.40;99.90
18450;DHT22;9354;50.194;7.690;2023-06-01T01:59:23;15.40;99.90
18450;DHT22;9354;50.194;7.690;2023-06-01T02:01:52;15.40;99.90
18450;DHT22;9354;50.194;7.690;2023-06-01T02:04:20;15.40;99.90
18450;DHT22;9354;50.194;7.690;2023-06-01T02:06:47;15.40;99.90
18450;DHT22;9354;50.194;7.690;2023-06-01T02:09:14;15.30;99.90
18450;DHT22;9354;50.194;7.690;2023-06-01T02:11:42;15.30;99.90
18450;DHT22;9354;50.194;7.690;2023-06-01T02:14:10;15.20;99.90
18450;DHT22;9354;50.194;7.690;2023-06-01T02:16:38;15.20;99.90
18450;DHT22;9354;50.194;7.690;2023-06-01T02:19:06;15.20;99.90
18450;DHT22;9354;50.194;7.690;2023-06-01T02:21:37;15.10;99.90
18450;DHT22;9354;50.194;7.690;2023-06-01T02:24:04;15.10;99.90
18450;DHT22;9354;50.194;7.690;2023-06-01T02:26:33;15.10;99.90
18450;DHT22;9354;50.194;7.690;2023-06-01T02:29:01;15.00;99.90
18450;DHT22;9354;50.194;7.690;2023-06-01T02:31:31;14.90;99.90
18450;DHT22;9354;50.194;7.690;2023-06-01T02:33:59;14.80;99.90
18450;DHT22;9354;50.194;7.690;2023-06-01T02:36:28;14.70;99.90
18450;DHT22;9354;50.194;7.690;2023-06-01T02:38:55;14.60;99.90
18450;DHT22;9354;50.194;7.690;2023-06-01T02:41:23;14.50;99.90
18450;DHT22;9354;50.194;7.690;2023-06-01T02:43:51;14.50;99.90
18450;DHT22;9354;50.194;7.690;2023-06-01T02:46:19;14.50;99.90
18450;DHT22;9354;50.194;7.690;2023-06-01T02:48:47;14.50;99.90
18450;DHT22;9354;50.194;7.690;2023-06-01T02:51:14;14.50;99.90
18450;DHT22;9354;50.194;7.690;2023-06-01T02:53:43;14.50;99.90
18450;DHT22;9354;50.194;7.690;2023-06-01T02:56:10;14.50;99.90
18450;DHT22;9354;50.194;7.690;2023-06-01T02:58:38;14.50;99.90
18450;DHT22;9354;50.194;7.690;2023-06-01T03:01:05;14.40;99.90
18450;DHT22;9354;50.194;7.690;2023-06-01T03:03:33;14.40;99.90
18450;DHT22;9354;50.194;7.690;2023-06-01T03:06:01;14.40;99.90
18450;DHT22;9354;50.194;7.690;2023-06-01T03:08:29;14.40;99.90
18450;DHT22;9354;50.194;7.690;2023-06-01T03:10:58;14.40;99.90
18450;DHT22;9354;50.194;7.690;2023-06-01T03:13:25;14.30;99.90
18450;DHT22;9354;50.194;7.690;2023-06-01T03:15:53;14.40;99.90
18450;DHT22;9354;50.194;7.690;2023-06-01T03:18:20;14.30;99.90
18450;DHT22;9354;50.194;7.690;2023-06-01T03:20:47;14.30;99.90
18450;DHT22;9354;50.194;7.690;2023-06-01T03:23:15;14.20;99.90
18450;DHT22;9354;50.194;7.690;2023-06-01T03:25:42;14.20;99.90
18450;DHT22;9354;50.194;7.690;2023-06-01T03:28:11;14.10;99.90
18450;DHT22;9354;50.194;7.690;2023-06-01T03:30:38;14.10;99.90
18450;DHT22;9354;50.194;7.690;2023-06-01T03:33:06;14.10;99.90
18450;DHT22;9354;50.194;7.690;2023-06-01T03:35:36;14.10;99.90
18450;DHT22;9354;50.194;7.690;2023-06-01T03:38:04;14.10;99.90
18450;DHT22;9354;50.194;7.690;2023-06-01T03:40:31;14.10;99.90
18450;DHT22;9354;50.194;7.690;2023-06-01T03:42:59;14.10;99.90
18450;DHT22;9354;50.194;7.690;2023-06-01T03:45:28;14.20;99.90
18450;DHT22;9354;50.194;7.690;2023-06-01T03:47:55;14.30;99.90
18450;DHT22;9354;50.194;7.690;2023-06-01T03:50:23;14.30;99.90
18450;DHT22;9354;50.194;7.690;2023-06-01T03:52:50;14.30;99.90
18450;DHT22;9354;50.194;7.690;2023-06-01T03:55:18;14.40;99.90
18450;DHT22;9354;50.194;7.690;2023-06-01T03:57:45;14.30;99.90
18450;DHT22;9354;50.194;7.690;2023-06-01T04:00:13;14.40;99.90
18450;DHT22;9354;50.194;7.690;2023-06-01T04:02:51;14.40;99.90
18450;DHT22;9354;50.194;7.690;2023-06-01T04:05:19;14.40;99.90
18450;DHT22;9354;50.194;7.690;2023-06-01T04:07:48;14.40;99.90
18450;DHT22;9354;50.194;7.690;2023-06-01T04:10:16;14.40;99.90
18450;DHT22;9354;50.194;7.690;2023-06-01T04:12:45;14.40;99.90
18450;DHT22;9354;50.194;7.690;2023-06-01T04:15:13;14.40;99.90
18450;DHT22;9354;50.194;7.690;2023-06-01T04:17:41;14.50;99.90
18450;DHT22;9354;50.194;7.690;2023-06-01T04:20:11;14.40;99.90
18450;DHT22;9354;50.194;7.690;2023-06-01T04:22:40;14.50;99.90
18450;DHT22;9354;50.194;7.690;2023-06-01T04:25:08;14.50;99.90
18450;DHT22;9354;50.194;7.690;2023-06-01T04:27:43;14.50;99.90
18450;DHT22;9354;50.194;7.690;2023-06-01T04:30:12;14.60;99.90
18450;DHT22;9354;50.194;7.690;2023-06-01T04:32:42;14.60;99.90
18450;DHT22;9354;50.194;7.690;2023-06-01T04:35:11;14.60;99.90
18450;DHT22;9354;50.194;7.690;2023-06-01T04:37:40;14.70;99.90
18450;DHT22;9354;50.194;7.690;2023-06-01T04:40:09;14.70;99.90
18450;DHT22;9354;50.194;7.690;2023-06-01T04:42:39;14.80;99.90
18450;DHT22;9354;50.194;7.690;2023-06-01T04:45:08;14.80;99.90
18450;DHT22;9354;50.194;7.690;2023-06-01T04:47:36;14.90;99.90
18450;DHT22;9354;50.194;7.690;2023-06-01T04:50:06;15.00;99.90
18450;DHT22;9354;50.194;7.690;2023-06-01T04:52:35;15.00;99.90
18450;DHT22;9354;50.194;7.690;2023-06-01T04:55:03;15.10;99.90
18450;DHT22;9354;50.194;7.690;2023-06-01T04:57:31;15.10;99.90
18450;DHT22;9354;50.194;7.690;2023-06-01T05:00:00;15.10;99.90
18450;DHT22;9354;50.194;7.690;2023-06-01T05:02:27;15.20;99.90
18450;DHT22;9354;50.194;7.690;2023-06-01T05:04:55;15.20;99.90
18450;DHT22;9354;50.194;7.690;2023-06-01T05:07:22;15.30;99.90
18450;DHT22;9354;50.194;7.690;2023-06-01T05:09:52;15.30;99.90
18450;DHT22;9354;50.194;7.690;2023-06-01T05:12:19;15.40;99.90
18450;DHT22;9354;50.194;7.690;2023-06-01T05:14:46;15.50;99.90
18450;DHT22;9354;50.194;7.690;2023-06-01T05:17:14;15.50;99.90
18450;DHT22;9354;50.194;7.690;2023-06-01T05:19:41;15.60;99.90
18450;DHT22;9354;50.194;7.690;2023-06-01T05:22:08;15.60;99.90
18450;DHT22;9354;50.194;7.690;2023-06-01T05:24:36;15.70;99.90
18450;DHT22;9354;50.194;7.690;2023-06-01T05:27:05;15.70;99.90
18450;DHT22;9354;50.194;7.690;2023-06-01T05:29:33;15.80;99.90
18450;DHT22;9354;50.194;7.690;2023-06-01T05:32:00;15.80;99.90
18450;DHT22;9354;50.194;7.690;2023-06-01T05:34:30;15.90;99.90
18450;DHT22;9354;50.194;7.690;2023-06-01T05:36:58;15.90;99.90
18450;DHT22;9354;50.194;7.690;2023-06-01T05:39:25;16.00;99.90
18450;DHT22;9354;50.194;7.690;2023-06-01T05:41:54;16.00;99.90
18450;DHT22;9354;50.194;7.690;2023-06-01T05:44:23;16.10;99.90
18450;DHT22;9354;50.194;7.690;2023-06-01T05:46:50;16.10;99.90
18450;DHT22;9354;50.194;7.690;2023-06-01T05:49:18;16.20;99.90
18450;DHT22;9354;50.194;7.690;2023-06-01T05:51:46;16.20;99.90
18450;DHT22;9354;50.194;7.690;2023-06-01T05:54:14;16.30;99.90
18450;DHT22;9354;50.194;7.690;2023-06-01T05:56:41;16.30;99.90
18450;DHT22;9354;50.194;7.690;2023-06-01T05:59:08;16.30;99.90
18450;DHT22;9354;50.194;7.690;2023-06-01T06:01:37;16.30;99.90
18450;DHT22;9354;50.194;7.690;2023-06-01T06:04:05;16.40;99.90
18450;DHT22;9354;50.194;7.690;2023-06-01T06:06:32;16.40;99.90
18450;DHT22;9354;50.194;7.690;2023-06-01T06:09:00;16.50;99.90
18450;DHT22;9354;50.194;7.690;2023-06-01T06:11:27;16.50;99.90
18450;DHT22;9354;50.194;7.690;2023-06-01T06:13:55;16.50;99.90
18450;DHT22;9354;50.194;7.690;2023-06-01T06:16:22;16.50;99.90
18450;DHT22;9354;50.194;7.690;2023-06-01T06:18:51;16.60;99.90
18450;DHT22;9354;50.194;7.690;2023-06-01T06:21:18;16.60;99.90
18450;DHT22;9354;50.194;7.690;2023-06-01T06:23:45;16.60;99.90
18450;DHT22;9354;50.194;7.690;2023-06-01T06:26:13;16.60;99.90
18450;DHT22;9354;50.194;7.690;2023-06-01T06:28:41;16.60;99.90
18450;DHT22;9354;50.194;7.690;2023-06-01T06:31:08;16.70;99.90
18450;DHT22;9354;50.194;7.690;2023-06-01T06:33:36;16.70;99.90
18450;DHT22;9354;50.194;7.690;2023-06-01T06:36:05;16.70;99.90
18450;DHT22;9354;50.194;7.690;2023-06-01T06:38:33;16.70;99.90
18450;DHT22;9354;50.194;7.690;2023-06-01T06:41:00;16.80;99.90
18450;DHT22;9354;50.194;7.690;2023-06-01T06:43:28;16.80;99.90
18450;DHT22;9354;50.194;7.690;2023-06-01T06:45:55;16.80;99.90
18450;DHT22;9354;50.194;7.690;2023-06-01T06:48:22;16.80;99.90
18450;DHT22;9354;50.194;7.690;2023-06-01T06:50:50;16.80;99.90
18450;DHT22;9354;50.194;7.690;2023-06-01T06:53:19;16.90;99.90
18450;DHT22;9354;50.194;7.690;2023-06-01T06:55:46;16.90;99.90
18450;DHT22;9354;50.194;7.690;2023-06-01T06:58:14;16.90;99.90
18450;DHT22;9354;50.194;7.690;2023-06-01T07:00:41;17.00;99.90
18450;DHT22;9354;50.194;7.690;2023-06-01T07:03:09;17.00;99.90
18450;DHT22;9354;50.194;7.690;2023-06-01T07:05:37;17.00;99.90
18450;DHT22;9354;50.194;7.690;2023-06-01T07:08:04;17.10;99.90
18450;DHT22;9354;50.194;7.690;2023-06-01T07:10:33;17.10;99.90
18450;DHT22;9354;50.194;7.690;2023-06-01T07:13:00;17.10;99.90
18450;DHT22;9354;50.194;7.690;2023-06-01T07:15:28;17.20;99.90
18450;DHT22;9354;50.194;7.690;2023-06-01T07:17:55;17.20;99.90
18450;DHT22;9354;50.194;7.690;2023-06-01T07:20:23;17.20;99.90
18450;DHT22;9354;50.194;7.690;2023-06-01T07:22:51;17.30;99.90
18450;DHT22;9354;50.194;7.690;2023-06-01T07:25:18;17.40;99.90
18450;DHT22;9354;50.194;7.690;2023-06-01T07:27:47;17.50;99.90
18450;DHT22;9354;50.194;7.690;2023-06-01T07:30:16;17.50;99.90
18450;DHT22;9354;50.194;7.690;2023-06-01T07:32:43;17.60;99.90
18450;DHT22;9354;50.194;7.690;2023-06-01T07:35:11;17.70;99.90
18450;DHT22;9354;50.194;7.690;2023-06-01T07:37:39;17.80;99.90
18450;DHT22;9354;50.194;7.690;2023-06-01T07:40:08;17.90;99.90
18450;DHT22;9354;50.194;7.690;2023-06-01T07:42:35;18.00;99.90
18450;DHT22;9354;50.194;7.690;2023-06-01T07:45:05;18.00;99.90
18450;DHT22;9354;50.194;7.690;2023-06-01T07:47:34;18.20;99.90
18450;DHT22;9354;50.194;7.690;2023-06-01T07:50:02;18.30;99.90
18450;DHT22;9354;50.194;7.690;2023-06-01T07:52:29;18.40;99.90
18450;DHT22;9354;50.194;7.690;2023-06-01T07:54:57;18.60;99.90
18450;DHT22;9354;50.194;7.690;2023-06-01T07:57:24;18.70;99.90
18450;DHT22;9354;50.194;7.690;2023-06-01T07:59:55;18.90;99.90
18450;DHT22;9354;50.194;7.690;2023-06-01T08:02:24;19.00;99.90
18450;DHT22;9354;50.194;7.690;2023-06-01T08:04:52;19.20;99.90
18450;DHT22;9354;50.194;7.690;2023-06-01T08:07:23;19.30;99.90
18450;DHT22;9354;50.194;7.690;2023-06-01T08:09:54;19.50;99.90
18450;DHT22;9354;50.194;7.690;2023-06-01T08:12:21;19.60;99.90
18450;DHT22;9354;50.194;7.690;2023-06-01T08:14:48;19.70;99.90
18450;DHT22;9354;50.194;7.690;2023-06-01T08:17:18;19.90;99.90
18450;DHT22;9354;50.194;7.690;2023-06-01T08:19:48;20.00;99.90
18450;DHT22;9354;50.194;7.690;2023-06-01T08:22:16;20.20;99.90
18450;DHT22;9354;50.194;7.690;2023-06-01T08:24:44;20.40;99.90
18450;DHT22;9354;50.194;7.690;2023-06-01T08:27:16;20.60;99.90
18450;DHT22;9354;50.194;7.690;2023-06-01T08:29:46;20.80;99.90
18450;DHT22;9354;50.194;7.690;2023-06-01T08:32:15;21.00;99.90
18450;DHT22;9354;50.194;7.690;2023-06-01T08:34:43;21.00;99.90
18450;DHT22;9354;50.194;7.690;2023-06-01T08:37:12;21.10;99.90
18450;DHT22;9354;50.194;7.690;2023-06-01T08:39:41;21.20;99.90
18450;DHT22;9354;50.194;7.690;2023-06-01T08:42:12;21.20;99.90
18450;DHT22;9354;50.194;7.690;2023-06-01T08:44:41;21.40;99.90
18450;DHT22;9354;50.194;7.690;2023-06-01T08:47:09;21.50;99.90
18450;DHT22;9354;50.194;7.690;2023-06-01T08:49:36;21.60;99.90
18450;DHT22;9354;50.194;7.690;2023-06-01T08:52:13;21.60;99.90
18450;DHT22;9354;50.194;7.690;2023-06-01T08:54:40;21.60;99.90
18450;DHT22;9354;50.194;7.690;2023-06-01T08:57:08;21.70;99.90
18450;DHT22;9354;50.194;7.690;2023-06-01T08:59:36;21.80;99.90
18450;DHT22;9354;50.194;7.690;2023-06-01T09:02:05;21.80;99.90
18450;DHT22;9354;50.194;7.690;2023-06-01T09:04:33;21.90;99.90
18450;DHT22;9354;50.194;7.690;2023-06-01T09:07:03;22.00;99.90
18450;DHT22;9354;50.194;7.690;2023-06-01T09:09:33;22.10;99.90
18450;DHT22;9354;50.194;7.690;2023-06-01T09:12:18;22.30;99.90
18450;DHT22;9354;50.194;7.690;2023-06-01T09:14:45;22.40;99.90
18450;DHT22;9354;50.194;7.690;2023-06-01T09:17:14;22.40;99.90
18450;DHT22;9354;50.194;7.690;2023-06-01T09:19:42;22.50;99.90
18450;DHT22;9354;50.194;7.690;2023-06-01T09:22:11;22.70;99.90
18450;DHT22;9354;50.194;7.690;2023-06-01T09:24:40;22.80;99.90
18450;DHT22;9354;50.194;7.690;2023-06-01T09:27:08;22.90;99.90
18450;DHT22;9354;50.194;7.690;2023-06-01T09:29:35;23.10;99.90
18450;DHT22;9354;50.194;7.690;2023-06-01T09:32:03;23.20;99.90
18450;DHT22;9354;50.194;7.690;2023-06-01T09:34:30;23.30;99.90
18450;DHT22;9354;50.194;7.690;2023-06-01T09:37:05;23.50;99.90
18450;DHT22;9354;50.194;7.690;2023-06-01T09:39:33;23.50;99.90
18450;DHT22;9354;50.194;7.690;2023-06-01T09:42:03;23.50;99.90
18450;DHT22;9354;50.194;7.690;2023-06-01T09:44:33;23.60;99.90
18450;DHT22;9354;50.194;7.690;2023-06-01T09:47:02;23.60;99.90
18450;DHT22;9354;50.194;7.690;2023-06-01T09:49:30;23.60;99.90
18450;DHT22;9354;50.194;7.690;2023-06-01T09:52:12;23.70;99.90
18450;DHT22;9354;50.194;7.690;2023-06-01T09:54:42;23.90;99.90
18450;DHT22;9354;50.194;7.690;2023-06-01T09:57:12;24.00;99.90
18450;DHT22;9354;50.194;7.690;2023-06-01T09:59:41;24.00;99.90
18450;DHT22;9354;50.194;7.690;2023-06-01T10:02:12;24.10;99.90
18450;DHT22;9354;50.194;7.690;2023-06-01T10:04:41;24.20;99.90
18450;DHT22;9354;50.194;7.690;2023-06-01T10:07:09;24.40;99.90
18450;DHT22;9354;50.194;7.690;2023-06-01T10:09:39;24.70;99.90
18450;DHT22;9354;50.194;7.690;2023-06-01T10:12:08;24.90;99.90
18450;DHT22;9354;50.194;7.690;2023-06-01T10:14:38;25.10;99.70
18450;DHT22;9354;50.194;7.690;2023-06-01T10:17:06;25.10;99.60
18450;DHT22;9354;50.194;7.690;2023-06-01T10:19:36;25.20;99.20
18450;DHT22;9354;50.194;7.690;2023-06-01T10:22:04;25.20;99.00
18450;DHT22;9354;50.194;7.690;2023-06-01T10:24:33;25.30;99.00
18450;DHT22;9354;50.194;7.690;2023-06-01T10:27:06;25.40;99.30
18450;DHT22;9354;50.194;7.690;2023-06-01T10:29:38;25.50;99.00
18450;DHT22;9354;50.194;7.690;2023-06-01T10:32:42;25.50;98.90
18450;DHT22;9354;50.194;7.690;2023-06-01T10:38:25;25.80;98.00
18450;DHT22;9354;50.194;7.690;2023-06-01T10:40:52;25.70;97.80
18450;DHT22;9354;50.194;7.690;2023-06-01T10:43:41;25.70;97.90
18450;DHT22;9354;50.194;7.690;2023-06-01T10:46:35;25.60;98.10
18450;DHT22;9354;50.194;7.690;2023-06-01T10:49:04;25.70;98.40
18450;DHT22;9354;50.194;7.690;2023-06-01T10:51:32;25.70;98.10
18450;DHT22;9354;50.194;7.690;2023-06-01T10:54:27;25.60;97.80
18450;DHT22;9354;50.194;7.690;2023-06-01T10:57:17;25.50;97.90
18450;DHT22;9354;50.194;7.690;2023-06-01T11:00:13;25.40;98.10
18450;DHT22;9354;50.194;7.690;2023-06-01T11:03:00;25.50;97.90
18450;DHT22;9354;50.194;7.690;2023-06-01T11:05:42;25.60;97.80
18450;DHT22;9354;50.194;7.690;2023-06-01T11:08:50;25.80;98.10
18450;DHT22;9354;50.194;7.690;2023-06-01T11:11:17;25.90;97.90
18450;DHT22;9354;50.194;7.690;2023-06-01T11:14:11;26.10;97.50
18450;DHT22;9354;50.194;7.690;2023-06-01T11:16:39;26.10;96.90
18450;DHT22;9354;50.194;7.690;2023-06-01T11:19:08;26.10;97.20
18450;DHT22;9354;50.194;7.690;2023-06-01T11:21:38;26.10;97.20
18450;DHT22;9354;50.194;7.690;2023-06-01T11:24:08;26.20;97.10
18450;DHT22;9354;50.194;7.690;2023-06-01T11:26:38;26.20;96.90
18450;DHT22;9354;50.194;7.690;2023-06-01T11:29:09;26.10;97.00
18450;DHT22;9354;50.194;7.690;2023-06-01T11:31:39;26.10;97.30
18450;DHT22;9354;50.194;7.690;2023-06-01T11:34:08;26.00;97.30
18450;DHT22;9354;50.194;7.690;2023-06-01T11:36:41;26.00;97.20
18450;DHT22;9354;50.194;7.690;2023-06-01T11:39:20;26.10;97.30
18450;DHT22;9354;50.194;7.690;2023-06-01T11:41:49;26.20;97.50
18450;DHT22;9354;50.194;7.690;2023-06-01T11:44:17;26.20;97.70
18450;DHT22;9354;50.194;7.690;2023-06-01T11:46:54;26.30;97.70
18450;DHT22;9354;50.194;7.690;2023-06-01T11:49:23;26.40;97.70
18450;DHT22;9354;50.194;7.690;2023-06-01T11:51:51;26.50;97.20
18450;DHT22;9354;50.194;7.690;2023-06-01T11:54:22;26.50;97.10
18450;DHT22;9354;50.194;7.690;2023-06-01T11:56:50;26.50;96.70
18450;DHT22;9354;50.194;7.690;2023-06-01T11:59:19;26.40;96.50
18450;DHT22;9354;50.194;7.690;2023-06-01T12:01:47;26.50;97.00
18450;DHT22;9354;50.194;7.690;2023-06-01T12:04:17;26.60;97.30
18450;DHT22;9354;50.194;7.690;2023-06-01T12:06:46;26.60;96.80
18450;DHT22;9354;50.194;7.690;2023-06-01T12:09:15;26.60;96.60
18450;DHT22;9354;50.194;7.690;2023-06-01T12:11:44;26.70;96.50
18450;DHT22;9354;50.194;7.690;2023-06-01T12:14:11;26.70;96.30
18450;DHT22;9354;50.194;7.690;2023-06-01T12:16:52;26.70;96.20
18450;DHT22;9354;50.194;7.690;2023-06-01T12:19:20;26.50;96.50
18450;DHT22;9354;50.194;7.690;2023-06-01T12:21:50;26.50;96.40
18450;DHT22;9354;50.194;7.690;2023-06-01T12:24:18;26.50;96.30
18450;DHT22;9354;50.194;7.690;2023-06-01T12:26:45;26.50;96.10
18450;DHT22;9354;50.194;7.690;2023-06-01T12:29:13;26.40;95.90
18450;DHT22;9354;50.194;7.690;2023-06-01T12:31:52;26.40;96.00
18450;DHT22;9354;50.194;7.690;2023-06-01T12:34:20;26.50;96.00
18450;DHT22;9354;50.194;7.690;2023-06-01T12:36:49;26.50;95.60
18450;DHT22;9354;50.194;7.690;2023-06-01T12:39:31;26.40;95.70
18450;DHT22;9354;50.194;7.690;2023-06-01T12:42:02;26.40;96.00
18450;DHT22;9354;50.194;7.690;2023-06-01T12:44:30;26.40;95.80
18450;DHT22;9354;50.194;7.690;2023-06-01T12:46:57;26.40;95.90
18450;DHT22;9354;50.194;7.690;2023-06-01T12:49:25;26.40;96.20
18450;DHT22;9354;50.194;7.690;2023-06-01T12:51:54;26.40;95.90
18450;DHT22;9354;50.194;7.690;2023-06-01T12:54:21;26.40;95.50
18450;DHT22;9354;50.194;7.690;2023-06-01T12:56:49;26.30;95.40
18450;DHT22;9354;50.194;7.690;2023-06-01T12:59:17;26.30;95.50
18450;DHT22;9354;50.194;7.690;2023-06-01T13:01:44;26.30;95.60
18450;DHT22;9354;50.194;7.690;2023-06-01T13:04:11;26.30;95.60
18450;DHT22;9354;50.194;7.690;2023-06-01T13:06:39;26.40;95.50
18450;DHT22;9354;50.194;7.690;2023-06-01T13:09:08;26.40;95.80
18450;DHT22;9354;50.194;7.690;2023-06-01T13:11:37;26.40;95.60
18450;DHT22;9354;50.194;7.690;2023-06-01T13:14:04;26.40;95.60
18450;DHT22;9354;50.194;7.690;2023-06-01T13:16:32;26.30;95.20
18450;DHT22;9354;50.194;7.690;2023-06-01T13:18:59;26.40;95.30
18450;DHT22;9354;50.194;7.690;2023-06-01T13:21:27;26.40;95.40
18450;DHT22;9354;50.194;7.690;2023-06-01T13:23:54;26.40;95.00
18450;DHT22;9354;50.194;7.690;2023-06-01T13:26:23;26.40;95.00
18450;DHT22;9354;50.194;7.690;2023-06-01T13:28:51;26.40;95.00
18450;DHT22;9354;50.194;7.690;2023-06-01T13:31:18;26.50;95.10
18450;DHT22;9354;50.194;7.690;2023-06-01T13:33:46;26.60;95.00
18450;DHT22;9354;50.194;7.690;2023-06-01T13:36:13;26.60;94.30
18450;DHT22;9354;50.194;7.690;2023-06-01T13:38:41;26.60;94.40
18450;DHT22;9354;50.194;7.690;2023-06-01T13:41:08;26.50;94.30
18450;DHT22;9354;50.194;7.690;2023-06-01T13:43:37;26.50;94.40
18450;DHT22;9354;50.194;7.690;2023-06-01T13:46:07;26.60;94.30
18450;DHT22;9354;50.194;7.690;2023-06-01T13:48:35;26.60;93.70
18450;DHT22;9354;50.194;7.690;2023-06-01T13:51:04;26.60;93.80
18450;DHT22;9354;50.194;7.690;2023-06-01T13:53:32;26.60;93.60
18450;DHT22;9354;50.194;7.690;2023-06-01T13:55:59;26.40;93.00
18450;DHT22;9354;50.194;7.690;2023-06-01T13:58:27;26.30;93.00
18450;DHT22;9354;50.194;7.690;2023-06-01T14:00:56;26.30;92.70
18450;DHT22;9354;50.194;7.690;2023-06-01T14:03:24;26.20;93.10
18450;DHT22;9354;50.194;7.690;2023-06-01T14:05:51;26.20;93.10
18450;DHT22;9354;50.194;7.690;2023-06-01T14:08:18;26.20;92.80
18450;DHT22;9354;50.194;7.690;2023-06-01T14:10:46;26.20;92.90
18450;DHT22;9354;50.194;7.690;2023-06-01T14:13:13;26.20;92.50
18450;DHT22;9354;50.194;7.690;2023-06-01T14:15:41;26.10;92.00
18450;DHT22;9354;50.194;7.690;2023-06-01T14:18:10;26.00;92.00
18450;DHT22;9354;50.194;7.690;2023-06-01T14:20:37;26.00;92.30
18450;DHT22;9354;50.194;7.690;2023-06-01T14:23:05;26.00;92.40
18450;DHT22;9354;50.194;7.690;2023-06-01T14:25:35;26.00;92.40
18450;DHT22;9354;50.194;7.690;2023-06-01T14:28:02;26.10;92.40
18450;DHT22;9354;50.194;7.690;2023-06-01T14:30:29;26.10;92.10
18450;DHT22;9354;50.194;7.690;2023-06-01T14:32:57;26.10;91.70
18450;DHT22;9354;50.194;7.690;2023-06-01T14:35:25;26.10;91.30
18450;DHT22;9354;50.194;7.690;2023-06-01T14:37:53;26.00;91.10
18450;DHT22;9354;50.194;7.690;2023-06-01T14:40:21;25.90;90.70
18450;DHT22;9354;50.194;7.690;2023-06-01T14:42:49;25.80;90.10
18450;DHT22;9354;50.194;7.690;2023-06-01T14:45:16;25.80;90.00
18450;DHT22;9354;50.194;7.690;2023-06-01T14:47:45;25.70;89.80
18450;DHT22;9354;50.194;7.690;2023-06-01T14:50:13;25.70;90.00
18450;DHT22;9354;50.194;7.690;2023-06-01T14:52:41;25.70;90.00
18450;DHT22;9354;50.194;7.690;2023-06-01T14:55:09;25.60;89.60
18450;DHT22;9354;50.194;7.690;2023-06-01T14:57:36;25.60;89.80
18450;DHT22;9354;50.194;7.690;2023-06-01T15:00:05;25.60;89.20
18450;DHT22;9354;50.194;7.690;2023-06-01T15:02:33;25.60;88.30
18450;DHT22;9354;50.194;7.690;2023-06-01T15:05:00;25.60;88.20
18450;DHT22;9354;50.194;7.690;2023-06-01T15:07:28;25.60;88.40
18450;DHT22;9354;50.194;7.690;2023-06-01T15:09:56;25.50;88.50
18450;DHT22;9354;50.194;7.690;2023-06-01T15:12:24;25.50;88.40
18450;DHT22;9354;50.194;7.690;2023-06-01T15:14:51;25.50;86.90
18450;DHT22;9354;50.194;7.690;2023-06-01T15:17:18;25.50;86.50
18450;DHT22;9354;50.194;7.690;2023-06-01T15:19:46;25.40;86.00
18450;DHT22;9354;50.194;7.690;2023-06-01T15:22:13;25.40;85.70
18450;DHT22;9354;50.194;7.690;2023-06-01T15:24:41;25.40;85.70
18450;DHT22;9354;50.194;7.690;2023-06-01T15:27:10;25.30;85.30
18450;DHT22;9354;50.194;7.690;2023-06-01T15:29:37;25.30;85.30
18450;DHT22;9354;50.194;7.690;2023-06-01T15:32:06;25.30;85.90
18450;DHT22;9354;50.194;7.690;2023-06-01T15:34:33;25.30;86.10
18450;DHT22;9354;50.194;7.690;2023-06-01T15:37:01;25.30;86.00
18450;DHT22;9354;50.194;7.690;2023-06-01T15:39:28;25.30;85.90
18450;DHT22;9354;50.194;7.690;2023-06-01T15:41:56;25.30;86.00
18450;DHT22;9354;50.194;7.690;2023-06-01T15:44:24;25.20;85.50
18450;DHT22;9354;50.194;7.690;2023-06-01T15:46:53;25.20;86.00
18450;DHT22;9354;50.194;7.690;2023-06-01T15:49:23;25.20;86.50
18450;DHT22;9354;50.194;7.690;2023-06-01T15:51:50;25.10;86.40
18450;DHT22;9354;50.194;7.690;2023-06-01T15:54:18;25.00;86.00
18450;DHT22;9354;50.194;7.690;2023-06-01T15:56:45;25.00;85.70
18450;DHT22;9354;50.194;7.690;2023-06-01T15:59:12;24.90;85.90
18450;DHT22;9354;50.194;7.690;2023-06-01T16:01:41;24.90;85.90